createdAt,value
2023-04-25T00:00:53.604Z,9.18
2023-04-25T00:03:37.460Z,9.21
2023-04-25T00:06:21.102Z,9.13
2023-04-25T00:09:12.168Z,9.17
2023-04-25T00:11:55.812Z,9.12
2023-04-25T00:14:39.386Z,9.18
2023-04-25T00:17:23.032Z,9.02
2023-04-25T00:20:09.976Z,8.93
2023-04-25T00:22:56.165Z,9.09
2023-04-25T00:25:39.691Z,8.90
2023-04-25T00:28:23.235Z,8.96
2023-04-25T00:31:06.798Z,9.09
2023-04-25T00:33:50.846Z,9.12
2023-04-25T00:36:34.748Z,9.21
2023-04-25T00:39:18.856Z,8.95
2023-04-25T00:42:03.537Z,8.95
2023-04-25T00:44:48.694Z,8.97
2023-04-25T00:47:34.373Z,8.94
2023-04-25T00:50:18.102Z,8.80
2023-04-25T00:53:02.493Z,8.79
2023-04-25T00:55:46.349Z,8.93
2023-04-25T00:58:30.455Z,8.99
2023-04-25T01:01:14.397Z,8.91
2023-04-25T01:04:01.145Z,9.05
2023-04-25T01:06:45.013Z,9.06
2023-04-25T01:09:29.190Z,9.10
2023-04-25T01:12:14.083Z,8.98
2023-04-25T01:14:58.325Z,9.30
2023-04-25T01:17:42.590Z,9.11
2023-04-25T01:20:27.485Z,8.94
2023-04-25T01:23:11.831Z,9.16
2023-04-25T01:25:56.473Z,9.06
2023-04-25T01:28:44.397Z,9.28
2023-04-25T01:31:30.158Z,9.04
2023-04-25T01:34:14.810Z,9.21
2023-04-25T01:37:02.547Z,9.33
2023-04-25T01:39:46.584Z,9.24
2023-04-25T01:42:30.115Z,9.33
2023-04-25T01:45:13.958Z,9.41
2023-04-25T01:48:00.552Z,9.24
2023-04-25T01:50:47.253Z,9.13
2023-04-25T01:53:31.360Z,9.53
2023-04-25T01:56:15.179Z,9.24
2023-04-25T01:59:00.145Z,9.08
2023-04-25T02:02:06.887Z,9.39
2023-04-25T02:04:52.429Z,8.86
2023-04-25T02:07:36.331Z,9.35
2023-04-25T02:10:19.858Z,9.43
2023-04-25T02:13:12.420Z,9.47
2023-04-25T02:16:07.283Z,9.39
2023-04-25T02:18:53.868Z,9.46
2023-04-25T02:21:37.816Z,9.38
2023-04-25T02:24:21.565Z,9.36
2023-04-25T02:27:05.836Z,9.39
2023-04-25T02:29:49.349Z,9.47
2023-04-25T02:32:32.982Z,9.25
2023-04-25T02:35:16.829Z,9.16
2023-04-25T02:38:00.358Z,9.13
2023-04-25T02:40:44.134Z,9.18
2023-04-25T02:43:27.755Z,9.62
2023-04-25T02:46:11.430Z,9.66
2023-04-25T02:48:56.801Z,9.17
2023-04-25T02:51:40.446Z,9.26
2023-04-25T02:54:24.339Z,9.49
2023-04-25T02:57:09.284Z,9.36
2023-04-25T02:59:54.598Z,9.40
2023-04-25T03:02:38.263Z,9.37
2023-04-25T03:05:21.949Z,9.52
2023-04-25T03:08:05.649Z,9.52
2023-04-25T03:10:52.517Z,9.55
2023-04-25T03:13:36.471Z,9.52
2023-04-25T03:16:20.931Z,9.77
2023-04-25T03:19:05.348Z,9.43
2023-04-25T03:21:49.868Z,9.34
2023-04-25T03:24:33.422Z,9.41
2023-04-25T03:27:17.371Z,9.34
2023-04-25T03:30:00.949Z,9.42
2023-04-25T03:32:44.610Z,9.34
2023-04-25T03:35:31.674Z,9.04
2023-04-25T03:38:15.522Z,9.24
2023-04-25T03:40:59.098Z,9.31
2023-04-25T03:44:01.401Z,9.71
2023-04-25T03:46:44.960Z,9.40
2023-04-25T03:49:28.636Z,9.32
2023-04-25T03:52:20.079Z,9.37
2023-04-25T03:55:05.962Z,9.12
2023-04-25T03:57:49.576Z,9.42
2023-04-25T04:00:33.938Z,9.13
2023-04-25T04:03:17.903Z,9.32
2023-04-25T04:06:02.532Z,9.47
2023-04-25T04:08:46.647Z,9.32
2023-04-25T04:11:30.526Z,9.46
2023-04-25T04:14:14.238Z,9.28
2023-04-25T04:17:01.770Z,9.37
2023-04-25T04:19:46.162Z,9.35
2023-04-25T04:22:33.700Z,9.11
2023-04-25T04:25:22.403Z,9.40
2023-04-25T04:28:24.620Z,9.17
2023-04-25T04:31:13.941Z,9.27
2023-04-25T04:33:57.543Z,9.52
2023-04-25T04:36:41.218Z,9.49
2023-04-25T04:39:25.123Z,9.53
2023-04-25T04:42:31.736Z,9.17
2023-04-25T04:45:21.722Z,9.18
2023-04-25T04:48:23.651Z,9.38
2023-04-25T04:51:22.022Z,8.94
2023-04-25T04:54:28.254Z,9.06
2023-04-25T04:57:34.188Z,9.60
2023-04-25T05:00:38.621Z,9.35
2023-04-25T05:03:22.328Z,9.70
2023-04-25T05:06:14.840Z,9.47
2023-04-25T05:09:16.180Z,9.50
2023-04-25T05:12:18.212Z,9.54
2023-04-25T05:15:04.988Z,9.46
2023-04-25T05:17:48.715Z,9.48
2023-04-25T05:20:48.571Z,9.25
2023-04-25T05:24:01.378Z,9.39
2023-04-25T05:27:03.545Z,9.16
2023-04-25T05:30:22.307Z,9.51
2023-04-25T05:33:21.829Z,9.66
2023-04-25T05:36:06.287Z,9.45
2023-04-25T05:38:49.946Z,9.47
2023-04-25T05:41:39.303Z,9.77
2023-04-25T05:44:46.368Z,9.34
2023-04-25T05:47:40.632Z,9.56
2023-04-25T05:50:29.640Z,8.99
2023-04-25T05:53:33.132Z,9.53
2023-04-25T05:56:18.455Z,9.64
2023-04-25T05:59:07.285Z,9.33
2023-04-25T06:01:50.781Z,9.30
2023-04-25T06:04:34.615Z,9.44
2023-04-25T06:07:19.766Z,9.57
2023-04-25T06:10:04.926Z,9.22
2023-04-25T06:12:48.567Z,8.89
2023-04-25T06:15:33.818Z,9.08
2023-04-25T06:18:18.291Z,9.07
2023-04-25T06:21:01.893Z,8.69
2023-04-25T06:23:45.514Z,8.96
2023-04-25T06:26:35.730Z,9.25
2023-04-25T06:29:20.804Z,8.84
2023-04-25T06:32:07.006Z,8.74
2023-04-25T06:34:51.732Z,9.10
2023-04-25T06:37:35.435Z,9.66
2023-04-25T06:40:19.256Z,9.08
2023-04-25T06:43:02.847Z,9.46
2023-04-25T06:46:05.729Z,9.24
2023-04-25T06:48:53.348Z,9.23
2023-04-25T06:51:37.393Z,8.97
2023-04-25T06:54:21.745Z,9.55
2023-04-25T06:57:16.983Z,9.30
2023-04-25T07:00:02.246Z,9.89
2023-04-25T07:02:47.754Z,9.88
2023-04-25T07:05:31.499Z,9.12
2023-04-25T07:08:15.811Z,8.91
2023-04-25T07:10:59.472Z,8.75
2023-04-25T07:13:43.144Z,9.43
2023-04-25T07:16:26.973Z,9.34
2023-04-25T07:19:10.829Z,9.29
2023-04-25T07:21:54.863Z,9.17
2023-04-25T07:24:39.392Z,9.46
2023-04-25T07:27:23.764Z,9.33
2023-04-25T07:30:13.415Z,8.86
2023-04-25T07:32:57.008Z,8.88
2023-04-25T07:35:41.028Z,8.61
2023-04-25T07:38:24.673Z,9.05
2023-04-25T07:41:08.391Z,9.14
2023-04-25T07:43:52.801Z,9.00
2023-04-25T07:46:37.614Z,8.56
2023-04-25T07:49:22.752Z,8.79
2023-04-25T07:52:07.285Z,8.62
2023-04-25T07:54:52.357Z,8.75
2023-04-25T07:57:44.441Z,8.74
2023-04-25T08:00:29.523Z,8.68
2023-04-25T08:03:32.512Z,8.56
2023-04-25T08:06:17.376Z,8.79
2023-04-25T08:09:13.751Z,8.90
2023-04-25T08:11:59.513Z,8.45
2023-04-25T08:14:47.846Z,8.61
2023-04-25T08:17:32.106Z,8.60
2023-04-25T08:20:16.391Z,8.82
2023-04-25T08:23:00.683Z,8.93
2023-04-25T08:25:55.065Z,8.75
2023-04-25T08:28:43.239Z,8.38
2023-04-25T08:31:27.047Z,8.66
2023-04-25T08:34:17.128Z,8.95
2023-04-25T08:37:05.555Z,9.16
2023-04-25T08:40:10.814Z,9.37
2023-04-25T08:43:20.684Z,9.41
2023-04-25T08:46:04.760Z,9.34
2023-04-25T08:49:03.416Z,9.82
2023-04-25T08:51:48.598Z,9.49
2023-04-25T08:54:37.267Z,9.68
2023-04-25T08:57:24.602Z,9.73
2023-04-25T09:00:09.345Z,9.45
2023-04-25T09:02:57.923Z,9.52
2023-04-25T09:09:12.056Z,9.30
2023-04-25T09:11:56.658Z,9.50
2023-04-25T09:14:43.874Z,9.95
2023-04-25T09:17:45.603Z,9.74
2023-04-25T09:20:31.653Z,9.96
2023-04-25T09:23:16.511Z,9.48
2023-04-25T09:26:00.538Z,9.52
2023-04-25T09:28:44.498Z,9.65
2023-04-25T09:31:28.374Z,10.02
2023-04-25T09:34:18.184Z,10.24
2023-04-25T09:37:13.225Z,10.13
2023-04-25T09:40:15.539Z,10.35
2023-04-25T09:43:21.923Z,10.33
2023-04-25T09:46:12.490Z,10.47
2023-04-25T09:49:09.370Z,10.47
2023-04-25T09:52:26.573Z,10.52
2023-04-25T09:55:21.470Z,10.55
2023-04-25T09:58:12.435Z,10.42
2023-04-25T10:01:03.510Z,10.06
2023-04-25T10:03:59.670Z,10.23
2023-04-25T10:07:00.195Z,10.05
2023-04-25T10:09:46.819Z,10.03
2023-04-25T10:12:35.024Z,10.06
2023-04-25T10:15:19.860Z,10.02
2023-04-25T10:18:04.129Z,10.34
2023-04-25T10:20:47.685Z,10.81
2023-04-25T10:23:32.941Z,10.38
2023-04-25T10:26:17.922Z,10.55
2023-04-25T10:29:05.592Z,10.13
2023-04-25T10:31:49.267Z,10.43
2023-04-25T10:34:48.361Z,10.67
2023-04-25T10:37:32.118Z,10.92
2023-04-25T10:40:24.156Z,10.87
2023-04-25T10:43:32.526Z,10.57
2023-04-25T10:46:35.181Z,10.95
2023-04-25T10:49:42.179Z,10.79
2023-04-25T10:52:29.403Z,10.85
2023-04-25T10:55:14.182Z,11.41
2023-04-25T11:00:56.746Z,11.51
2023-04-25T11:03:45.293Z,11.06
2023-04-25T11:06:53.824Z,10.86
2023-04-25T11:09:42.697Z,10.57
2023-04-25T11:12:26.485Z,10.80
2023-04-25T11:15:10.226Z,10.39
2023-04-25T11:17:55.190Z,11.06
2023-04-25T11:20:38.733Z,11.31
2023-04-25T11:23:22.280Z,10.57
2023-04-25T11:26:05.904Z,11.15
2023-04-25T11:28:50.778Z,10.51
2023-04-25T11:31:34.342Z,10.69
2023-04-25T11:34:20.953Z,10.67
2023-04-25T11:37:05.546Z,10.76
2023-04-25T11:39:49.111Z,11.02
2023-04-25T11:42:32.806Z,11.32
2023-04-25T11:45:16.715Z,10.62
2023-04-25T11:48:00.402Z,10.15
2023-04-25T11:50:44.030Z,9.86
2023-04-25T11:53:29.480Z,9.94
2023-04-25T11:56:13.565Z,9.76
2023-04-25T11:58:57.695Z,9.48
2023-04-25T12:01:50.509Z,9.54
2023-04-25T12:04:34.269Z,9.56
2023-04-25T12:07:19.930Z,9.68
2023-04-25T12:10:13.273Z,9.89
2023-04-25T12:12:57.261Z,10.10
2023-04-25T12:15:42.652Z,10.33
2023-04-25T12:18:29.838Z,10.02
2023-04-25T12:21:13.689Z,10.03
2023-04-25T12:23:59.251Z,9.84
2023-04-25T12:27:06.105Z,10.20
2023-04-25T12:29:57.925Z,10.19
2023-04-25T12:32:42.665Z,10.13
2023-04-25T12:35:27.234Z,10.05
2023-04-25T12:38:11.847Z,10.35
2023-04-25T12:40:55.722Z,10.52
2023-04-25T12:43:39.393Z,10.14
2023-04-25T12:46:24.435Z,10.15
2023-04-25T12:49:18.690Z,10.23
2023-04-25T12:52:03.071Z,10.29
2023-04-25T12:54:46.882Z,10.08
2023-04-25T12:57:30.579Z,9.99
2023-04-25T13:00:16.152Z,10.59
2023-04-25T13:03:07.085Z,10.82
2023-04-25T13:05:53.631Z,10.55
2023-04-25T13:08:39.312Z,10.53
2023-04-25T13:11:23.046Z,9.97
2023-04-25T13:14:10.964Z,10.07
2023-04-25T13:16:55.673Z,10.37
2023-04-25T13:19:42.658Z,10.21
2023-04-25T13:22:26.336Z,10.57
2023-04-25T13:25:10.483Z,10.40
2023-04-25T13:27:54.218Z,10.24
2023-04-25T13:30:38.160Z,10.18
2023-04-25T13:33:22.724Z,10.76
2023-04-25T13:36:07.139Z,11.13
2023-04-25T13:38:50.968Z,11.04
2023-04-25T13:41:34.642Z,11.05
2023-04-25T13:44:18.458Z,10.55
2023-04-25T13:47:02.363Z,10.54
2023-04-25T13:49:46.297Z,10.31
2023-04-25T13:52:30.841Z,10.50
2023-04-25T13:55:14.459Z,10.92
2023-04-25T13:57:58.878Z,11.01
2023-04-25T14:00:47.194Z,10.87
2023-04-25T14:03:32.600Z,10.50
2023-04-25T14:06:22.391Z,11.08
2023-04-25T14:09:07.821Z,11.18
2023-04-25T14:11:51.583Z,10.98
2023-04-25T14:14:35.628Z,10.83
2023-04-25T14:17:21.677Z,10.36
2023-04-25T14:20:07.121Z,10.24
2023-04-25T14:22:51.352Z,10.24
2023-04-25T14:25:45.531Z,10.28
2023-04-25T14:28:29.315Z,10.17
2023-04-25T14:31:12.960Z,10.36
2023-04-25T14:34:00.089Z,10.41
2023-04-25T14:36:44.333Z,10.20
2023-04-25T14:39:27.953Z,10.21
2023-04-25T14:42:12.337Z,9.69
2023-04-25T14:44:56.007Z,9.57
2023-04-25T14:47:40.072Z,9.90
2023-04-25T14:50:24.074Z,9.68
2023-04-25T14:53:08.038Z,10.02
2023-04-25T14:55:54.950Z,9.80
2023-04-25T14:58:40.133Z,9.76
2023-04-25T15:01:24.246Z,10.20
2023-04-25T15:04:08.168Z,10.36
2023-04-25T15:06:52.285Z,10.28
2023-04-25T15:09:36.032Z,10.67
2023-04-25T15:12:21.591Z,10.32
2023-04-25T15:15:06.915Z,10.50
2023-04-25T15:17:51.628Z,10.25
2023-04-25T15:20:36.171Z,10.20
2023-04-25T15:23:22.576Z,10.47
2023-04-25T15:26:09.530Z,9.87
2023-04-25T15:28:53.671Z,9.90
2023-04-25T15:31:40.505Z,10.19
2023-04-25T15:34:24.618Z,10.37
2023-04-25T15:37:08.630Z,10.73
2023-04-25T15:40:10.067Z,10.81
2023-04-25T15:42:54.144Z,10.53
2023-04-25T15:45:38.125Z,10.50
2023-04-25T15:48:23.766Z,10.64
2023-04-25T15:51:07.546Z,10.85
2023-04-25T15:53:54.513Z,10.36
2023-04-25T15:56:38.484Z,10.68
2023-04-25T15:59:22.171Z,10.48
2023-04-25T16:02:08.813Z,9.77
2023-04-25T16:04:52.773Z,10.02
2023-04-25T16:07:37.023Z,10.06
2023-04-25T16:10:22.002Z,9.88
2023-04-25T16:13:05.685Z,9.63
2023-04-25T16:15:49.947Z,9.64
2023-04-25T16:18:34.136Z,9.77
2023-04-25T16:21:21.434Z,9.82
2023-04-25T16:24:05.360Z,9.77
2023-04-25T16:26:49.124Z,9.92
2023-04-25T16:29:33.077Z,9.90
2023-04-25T16:32:19.379Z,9.78
2023-04-25T16:35:03.089Z,9.40
2023-04-25T16:37:47.397Z,9.44
2023-04-25T16:40:31.409Z,9.43
2023-04-25T16:43:15.362Z,9.45
2023-04-25T16:46:00.735Z,9.50
2023-04-25T16:48:49.350Z,9.45
2023-04-25T16:51:43.772Z,9.27
2023-04-25T16:54:31.356Z,9.47
2023-04-25T16:57:15.191Z,9.35
2023-04-25T16:59:59.210Z,9.30
2023-04-25T17:02:47.374Z,9.21
2023-04-25T17:05:31.474Z,9.60
2023-04-25T17:08:18.334Z,9.52
2023-04-25T17:11:03.780Z,9.65
2023-04-25T17:13:48.061Z,9.88
2023-04-25T17:16:38.003Z,9.96
2023-04-25T17:19:23.971Z,10.04
2023-04-25T17:22:07.951Z,9.84
2023-04-25T17:24:52.317Z,9.94
2023-04-25T17:27:39.615Z,9.56
2023-04-25T17:30:23.921Z,9.27
2023-04-25T17:33:07.945Z,9.43
2023-04-25T17:35:51.904Z,9.11
2023-04-25T17:38:39.335Z,9.18
2023-04-25T17:41:23.131Z,9.13
2023-04-25T17:44:07.174Z,9.21
2023-04-25T17:46:51.393Z,9.07
2023-04-25T17:49:35.041Z,9.10
2023-04-25T17:52:18.815Z,9.12
2023-04-25T17:55:02.850Z,9.02
2023-04-25T17:57:49.855Z,9.32
2023-04-25T18:00:34.616Z,9.15
2023-04-25T18:03:18.371Z,8.97
2023-04-25T18:06:02.189Z,8.80
2023-04-25T18:08:46.918Z,9.09
2023-04-25T18:11:33.063Z,8.92
2023-04-25T18:14:17.214Z,8.94
2023-04-25T18:17:01.004Z,8.95
2023-04-25T18:19:48.982Z,8.98
2023-04-25T18:22:33.309Z,9.24
2023-04-25T18:25:17.208Z,9.38
2023-04-25T18:28:01.056Z,9.38
2023-04-25T18:30:44.841Z,9.37
2023-04-25T18:33:28.428Z,9.29
2023-04-25T18:36:11.971Z,9.40
2023-04-25T18:39:03.353Z,8.61
2023-04-25T18:42:03.286Z,8.35
2023-04-25T18:44:51.255Z,8.42
2023-04-25T18:47:34.855Z,8.21
2023-04-25T18:50:20.864Z,8.45
2023-04-25T18:53:04.382Z,8.41
2023-04-25T18:55:48.080Z,8.19
2023-04-25T18:58:32.616Z,8.26
2023-04-25T19:01:16.483Z,8.50
2023-04-25T19:04:02.268Z,8.39
2023-04-25T19:06:50.155Z,8.37
2023-04-25T19:09:33.762Z,8.40
2023-04-25T19:12:17.347Z,8.56
2023-04-25T19:15:01.952Z,8.54
2023-04-25T19:17:45.660Z,8.18
2023-04-25T19:20:29.336Z,7.94
2023-04-25T19:26:25.493Z,8.13
2023-04-25T19:29:13.478Z,8.03
2023-04-25T19:31:59.663Z,8.28
2023-04-25T19:34:43.198Z,7.85
2023-04-25T19:37:26.873Z,8.16
2023-04-25T19:40:11.591Z,7.89
2023-04-25T19:42:55.778Z,7.71
2023-04-25T19:45:39.632Z,7.89
2023-04-25T19:48:23.782Z,7.78
2023-04-25T19:51:07.882Z,7.83
2023-04-25T19:53:54.967Z,7.55
2023-04-25T19:56:38.618Z,7.60
2023-04-25T19:59:22.329Z,7.68
2023-04-25T20:02:10.893Z,7.63
2023-04-25T20:04:54.906Z,7.58
2023-04-25T20:07:38.721Z,7.46
2023-04-25T20:10:22.463Z,7.96
2023-04-25T20:13:06.044Z,7.60
2023-04-25T20:15:49.675Z,7.50
2023-04-25T20:18:33.369Z,7.72
2023-04-25T20:21:17.576Z,7.43
2023-04-25T20:24:01.943Z,7.42
2023-04-25T20:26:45.492Z,7.82
2023-04-25T20:29:29.259Z,7.55
2023-04-25T20:32:13.302Z,7.25
2023-04-25T20:34:57.383Z,7.58
2023-04-25T20:37:41.056Z,7.62
2023-04-25T20:40:24.654Z,7.18
2023-04-25T20:43:11.283Z,7.35
2023-04-25T20:45:55.186Z,7.44
2023-04-25T20:48:38.718Z,7.29
2023-04-25T20:51:23.120Z,7.42
2023-04-25T20:54:09.653Z,7.52
2023-04-25T20:56:54.000Z,7.26
2023-04-25T20:59:37.775Z,7.47
2023-04-25T21:02:21.545Z,7.42
2023-04-25T21:05:05.887Z,6.99
2023-04-25T21:07:50.239Z,6.93
2023-04-25T21:10:34.992Z,6.97
2023-04-25T21:13:20.553Z,6.92
2023-04-25T21:16:04.356Z,7.17
2023-04-25T21:18:47.862Z,7.24
2023-04-25T21:21:32.376Z,7.22
2023-04-25T21:24:16.475Z,7.24
2023-04-25T21:27:00.148Z,7.12
2023-04-25T21:29:45.824Z,7.51
2023-04-25T21:32:29.391Z,7.38
2023-04-25T21:35:14.691Z,7.19
2023-04-25T21:37:58.546Z,7.25
2023-04-25T21:40:42.295Z,6.79
2023-04-25T21:43:25.930Z,6.60
2023-04-25T21:48:56.796Z,6.68
2023-04-25T21:51:40.365Z,6.50
2023-04-25T21:54:23.893Z,6.63
2023-04-25T21:57:07.439Z,6.58
2023-04-25T21:59:51.119Z,6.57
2023-04-25T22:02:36.855Z,6.65
2023-04-25T22:05:22.540Z,6.36
2023-04-25T22:08:06.247Z,6.37
2023-04-25T22:10:49.765Z,6.54
2023-04-25T22:13:33.880Z,6.14
2023-04-25T22:16:18.042Z,6.27
2023-04-25T22:19:01.628Z,6.50
2023-04-25T22:21:45.100Z,6.55
2023-04-25T22:24:30.046Z,6.30
2023-04-25T22:27:13.664Z,6.37
2023-04-25T22:29:57.168Z,6.32
2023-04-25T22:32:41.678Z,6.25
2023-04-25T22:35:25.267Z,6.18
2023-04-25T22:38:08.816Z,6.01
2023-04-25T22:40:52.402Z,6.21
2023-04-25T22:43:39.936Z,5.97
2023-04-25T22:46:23.926Z,6.04
2023-04-25T22:49:07.613Z,5.84
2023-04-25T22:51:55.597Z,5.89
2023-04-25T22:54:39.608Z,5.97
2023-04-25T22:57:23.108Z,5.80
2023-04-25T23:00:15.574Z,5.73
2023-04-25T23:02:59.437Z,5.84
2023-04-25T23:05:44.457Z,5.92
2023-04-25T23:08:28.037Z,5.68
2023-04-25T23:11:11.622Z,5.63
2023-04-25T23:13:55.317Z,5.55
2023-04-25T23:16:40.908Z,5.83
2023-04-25T23:19:24.533Z,5.55
2023-04-25T23:22:08.699Z,5.52
2023-04-25T23:24:52.337Z,5.53
2023-04-25T23:27:35.960Z,5.52
2023-04-25T23:30:20.423Z,5.55
2023-04-25T23:33:04.295Z,5.48
2023-04-25T23:35:47.876Z,5.33
2023-04-25T23:38:32.379Z,5.41
2023-04-25T23:41:16.180Z,5.40
2023-04-25T23:43:59.660Z,5.28
2023-04-25T23:46:43.352Z,5.31
2023-04-25T23:49:27.269Z,5.38
2023-04-25T23:52:10.937Z,5.12
2023-04-25T23:54:55.709Z,5.62
2023-04-25T23:57:39.354Z,5.32
